Time;durP1;ratioP1;P1;durP2;ratioP2;P2;SDS_P1;SDS_P2;PMS_P1;PMS_P2;Temp;Humidity;BMP_temperature;BMP_pressure;BME280_temperature;BME280_humidity;BME280_pressure;Samples;Min_cycle;Max_cycle;Signal;HPM_P1;HPM_P2
2024/03/21 00:00:35;;;;;;;8.17;4.30;;;17.80;51.10;;;;;;4985027;28;20674;-63
2024/03/21 00:03:01;;;;;;;6.70;4.43;;;17.90;51.20;;;;;;4989102;28;20181;-64
2024/03/21 00:05:27;;;;;;;5.10;4.60;;;17.80;51.00;;;;;;4987297;28;20537;-63
2024/03/21 00:07:53;;;;;;;5.50;4.33;;;17.80;51.00;;;;;;4986303;28;20362;-61
2024/03/21 00:10:19;;;;;;;4.33;3.50;;;17.80;51.00;;;;;;4986818;28;20198;-59
2024/03/21 00:12:49;;;;;;;4.63;4.20;;;17.80;51.40;;;;;;4982503;28;20195;-62
2024/03/21 00:15:15;;;;;;;5.83;4.17;;;17.80;51.20;;;;;;4988083;28;20437;-60
2024/03/21 00:17:42;;;;;;;6.53;4.23;;;17.60;51.10;;;;;;4986929;28;20465;-61
2024/03/21 00:20:10;;;;;;;4.40;4.00;;;17.60;51.10;;;;;;4987307;28;20445;-62
2024/03/21 00:22:40;;;;;;;5.90;3.93;;;17.60;51.50;;;;;;4989480;28;21326;-62
2024/03/21 00:25:06;;;;;;;9.63;4.07;;;17.60;51.20;;;;;;4991332;28;20445;-63
2024/03/21 00:27:33;;;;;;;12.20;4.20;;;17.60;51.50;;;;;;4991895;28;20482;-59
2024/03/21 00:29:59;;;;;;;4.13;3.67;;;17.60;51.20;;;;;;4988209;28;20489;-61
2024/03/21 00:32:25;;;;;;;4.50;4.10;;;17.60;51.70;;;;;;4989076;28;20489;-59
2024/03/21 00:34:50;;;;;;;5.63;5.10;;;17.60;51.40;;;;;;4988860;28;20178;-62
2024/03/21 00:37:16;;;;;;;4.77;4.37;;;17.60;51.60;;;;;;4989942;28;20636;-61
2024/03/21 00:39:44;;;;;;;6.63;4.10;;;17.60;51.50;;;;;;4990242;28;20194;-59
2024/03/21 00:42:09;;;;;;;4.67;4.10;;;17.50;51.80;;;;;;4989524;28;20197;-61
2024/03/21 00:44:36;;;;;;;4.80;4.30;;;17.60;51.60;;;;;;4991730;28;20434;-63
2024/03/21 00:47:02;;;;;;;5.30;4.27;;;17.60;51.40;;;;;;4991847;28;20223;-64
2024/03/21 00:49:28;;;;;;;4.13;3.70;;;17.80;51.00;;;;;;4984661;28;20524;-60
2024/03/21 00:51:54;;;;;;;4.57;4.17;;;17.70;50.30;;;;;;4991187;28;20481;-62
2024/03/21 00:54:19;;;;;;;4.80;4.40;;;17.70;50.60;;;;;;4990835;28;20822;-61
2024/03/21 00:56:45;;;;;;;4.60;3.80;;;17.70;51.00;;;;;;4991957;28;20242;-58
2024/03/21 00:59:10;;;;;;;5.60;4.30;;;17.70;51.10;;;;;;4991730;28;20186;-59
2024/03/21 01:01:36;;;;;;;4.53;4.13;;;17.70;51.10;;;;;;4992853;28;20237;-60
2024/03/21 01:04:02;;;;;;;4.33;3.93;;;17.80;51.00;;;;;;4991886;28;20252;-61
2024/03/21 01:06:27;;;;;;;4.30;3.90;;;17.80;51.00;;;;;;4991740;28;20223;-61
2024/03/21 01:08:53;;;;;;;5.33;3.63;;;17.80;51.10;;;;;;4991186;28;20186;-59
2024/03/21 01:11:19;;;;;;;4.60;4.20;;;17.80;50.90;;;;;;4992272;28;20778;-61
2024/03/21 01:13:44;;;;;;;6.47;3.50;;;17.80;50.70;;;;;;4991488;28;20553;-61
2024/03/21 01:16:11;;;;;;;4.17;3.70;;;17.80;50.00;;;;;;4991702;28;20561;-62
2024/03/21 01:18:40;;;;;;;5.20;3.83;;;17.80;50.10;;;;;;4991199;28;20193;-59
2024/03/21 01:21:06;;;;;;;3.63;3.33;;;17.70;50.60;;;;;;4991477;28;20441;-62
2024/03/21 01:23:32;;;;;;;3.67;3.37;;;17.60;50.80;;;;;;4989204;28;20457;-63
2024/03/21 01:26:02;;;;;;;3.90;3.50;;;17.50;51.00;;;;;;4981779;28;20845;-62
2024/03/21 01:28:28;;;;;;;4.27;3.93;;;17.50;50.70;;;;;;4982226;28;20219;-62
2024/03/21 01:30:54;;;;;;;4.73;4.03;;;17.60;50.40;;;;;;4984357;28;20917;-63
2024/03/21 01:33:20;;;;;;;5.30;3.37;;;17.60;50.70;;;;;;4984569;28;20209;-59
2024/03/21 01:35:46;;;;;;;4.60;3.70;;;17.60;51.40;;;;;;4984784;28;20682;-62
2024/03/21 01:38:13;;;;;;;4.97;4.00;;;17.50;51.20;;;;;;4984203;28;20484;-59
2024/03/21 01:40:39;;;;;;;7.30;3.37;;;17.40;51.30;;;;;;4984554;28;20274;-58
2024/03/21 01:43:24;;;;;;;5.53;3.60;;;17.40;51.60;;;;;;4988327;28;20497;-62
2024/03/21 01:46:09;;;;;;;6.47;3.60;;;17.50;51.70;;;;;;4986880;28;20469;-63
2024/03/21 01:48:39;;;;;;;7.33;4.10;;;17.60;51.30;;;;;;4985875;28;20438;-60
2024/03/21 01:51:06;;;;;;;5.70;4.13;;;17.70;51.10;;;;;;4985576;28;20441;-64
2024/03/21 01:53:32;;;;;;;4.30;3.83;;;17.70;50.90;;;;;;4987315;28;21001;-59
2024/03/21 01:55:59;;;;;;;5.40;3.83;;;17.70;50.60;;;;;;4983327;28;20456;-58
2024/03/21 01:58:25;;;;;;;4.40;3.97;;;17.70;50.30;;;;;;4982061;28;20449;-59
2024/03/21 02:00:50;;;;;;;7.53;4.13;;;17.80;50.10;;;;;;4983921;28;21051;-62
2024/03/21 02:03:16;;;;;;;5.43;3.83;;;17.70;50.60;;;;;;4980519;28;20233;-59
2024/03/21 02:05:42;;;;;;;4.20;3.80;;;17.60;51.10;;;;;;4982844;28;20198;-59
2024/03/21 02:08:08;;;;;;;7.07;4.73;;;17.60;50.80;;;;;;4982967;28;20206;-59
2024/03/21 02:10:37;;;;;;;5.47;4.00;;;17.60;50.90;;;;;;4991661;28;20708;-58
2024/03/21 02:13:03;;;;;;;4.23;3.83;;;17.50;51.10;;;;;;4989081;28;20588;-63
2024/03/21 02:15:30;;;;;;;4.00;3.60;;;17.50;51.50;;;;;;4984091;28;20929;-62
2024/03/21 02:17:56;;;;;;;4.00;3.60;;;17.50;51.20;;;;;;4989769;28;20540;-59
2024/03/21 02:20:21;;;;;;;4.60;4.20;;;17.60;51.20;;;;;;4990439;28;20521;-59
2024/03/21 02:22:47;;;;;;;5.97;3.80;;;17.60;51.30;;;;;;4990963;28;20186;-62
2024/03/21 02:25:12;;;;;;;4.00;3.60;;;17.50;51.30;;;;;;4990345;28;20273;-58
2024/03/21 02:27:40;;;;;;;4.67;3.40;;;17.50;51.50;;;;;;4985553;28;20735;-58
2024/03/21 02:30:07;;;;;;;4.50;4.10;;;17.50;51.30;;;;;;4989099;28;20187;-64
2024/03/21 02:32:33;;;;;;;3.87;3.33;;;17.60;50.50;;;;;;4983654;28;20458;-60
2024/03/21 02:35:00;;;;;;;3.90;3.50;;;17.30;51.40;;;;;;4983261;28;20520;-62
2024/03/21 02:37:26;;;;;;;4.33;3.93;;;17.40;51.40;;;;;;4982104;28;20483;-61
2024/03/21 02:39:51;;;;;;;5.67;4.07;;;17.40;51.40;;;;;;4983439;28;20442;-57
2024/03/21 02:42:18;;;;;;;5.87;3.77;;;17.10;51.20;;;;;;4982734;28;20197;-61
2024/03/21 02:44:46;;;;;;;4.27;3.60;;;16.90;52.70;;;;;;4986788;28;20245;-61
2024/03/21 02:47:12;;;;;;;6.13;3.87;;;17.00;52.10;;;;;;4990018;28;20979;-59
2024/03/21 02:49:37;;;;;;;4.40;3.70;;;17.10;51.90;;;;;;4989559;28;20422;-62
2024/03/21 02:52:03;;;;;;;4.20;3.80;;;17.20;51.90;;;;;;4981230;28;20303;-62
2024/03/21 02:54:31;;;;;;;4.60;3.57;;;17.30;52.40;;;;;;4982632;28;20194;-61
2024/03/21 02:57:04;;;;;;;4.00;3.70;;;17.30;51.90;;;;;;4985399;28;20484;-58
2024/03/21 02:59:32;;;;;;;5.20;4.70;;;17.40;51.70;;;;;;4981595;28;20493;-60
2024/03/21 03:01:58;;;;;;;8.37;3.73;;;17.40;51.60;;;;;;4983193;28;20456;-60
2024/03/21 03:04:23;;;;;;;5.00;3.40;;;17.40;51.90;;;;;;4986520;28;20454;-62
2024/03/21 03:06:49;;;;;;;4.07;3.67;;;17.40;51.70;;;;;;4983109;28;20223;-58
2024/03/21 03:09:15;;;;;;;4.40;4.00;;;17.40;51.60;;;;;;4980070;28;20261;-62
2024/03/21 03:11:41;;;;;;;5.23;3.40;;;17.40;51.80;;;;;;4981242;28;20768;-61
2024/03/21 03:14:07;;;;;;;6.43;3.77;;;17.40;52.00;;;;;;4981000;28;20187;-59
2024/03/21 03:16:33;;;;;;;4.10;3.70;;;17.30;52.50;;;;;;4983551;28;20228;-58
2024/03/21 03:19:00;;;;;;;4.60;3.43;;;17.40;52.00;;;;;;4980972;28;21240;-61
2024/03/21 03:21:26;;;;;;;5.13;3.87;;;17.50;52.10;;;;;;4986330;28;20463;-56
2024/03/21 03:23:52;;;;;;;3.67;3.37;;;17.40;51.90;;;;;;4987273;28;20450;-62
2024/03/21 03:26:17;;;;;;;4.90;4.40;;;17.50;52.00;;;;;;4984999;28;20568;-62
2024/03/21 03:28:43;;;;;;;4.40;4.10;;;17.50;51.50;;;;;;4982375;28;20182;-62
2024/03/21 03:31:08;;;;;;;4.13;3.77;;;17.60;52.00;;;;;;4984756;28;20186;-58
2024/03/21 03:36:18;;;;;;;4.70;4.00;;;17.60;51.10;;;;;;4985461;28;20210;-62
2024/03/21 03:38:44;;;;;;;4.57;4.07;;;17.50;51.30;;;;;;4986703;28;20969;-62
2024/03/21 03:41:10;;;;;;;4.07;3.70;;;17.50;51.50;;;;;;4987644;28;20570;-61
2024/03/21 03:43:35;;;;;;;3.43;3.13;;;17.50;51.60;;;;;;4988104;28;20675;-61
2024/03/21 03:46:01;;;;;;;3.90;3.50;;;17.60;52.40;;;;;;4988162;28;20301;-59
2024/03/21 03:48:26;;;;;;;5.97;4.70;;;17.60;51.90;;;;;;4987825;28;20183;-62
2024/03/21 03:50:52;;;;;;;5.97;4.20;;;17.50;51.50;;;;;;4984921;28;20209;-61
2024/03/21 03:53:17;;;;;;;4.10;3.70;;;17.30;52.20;;;;;;4983531;28;20190;-59
2024/03/21 03:55:43;;;;;;;5.73;3.80;;;17.20;52.20;;;;;;4979400;28;20194;-62
2024/03/21 03:58:08;;;;;;;6.00;4.10;;;17.30;51.80;;;;;;4982579;28;20211;-63
2024/03/21 04:00:34;;;;;;;3.90;3.60;;;17.30;51.70;;;;;;4987966;28;21060;-59
2024/03/21 04:02:59;;;;;;;4.07;3.73;;;17.30;51.60;;;;;;4988314;28;20273;-62
2024/03/21 04:05:25;;;;;;;6.00;4.10;;;17.30;51.60;;;;;;4986481;28;20198;-60
2024/03/21 04:07:51;;;;;;;4.73;4.10;;;17.30;51.80;;;;;;4976939;28;20223;-60
2024/03/21 04:10:17;;;;;;;4.53;3.93;;;17.30;51.80;;;;;;4987640;28;20210;-61
2024/03/21 04:12:42;;;;;;;4.70;4.30;;;17.30;51.70;;;;;;4987680;28;20199;-61
2024/03/21 04:15:08;;;;;;;4.90;4.20;;;17.30;51.70;;;;;;4987526;28;20214;-61
2024/03/21 04:17:34;;;;;;;3.80;3.50;;;17.30;51.80;;;;;;4988922;28;20688;-62
2024/03/21 04:20:04;;;;;;;4.27;3.83;;;17.30;51.90;;;;;;4988227;28;20432;-62
2024/03/21 04:22:30;;;;;;;4.20;3.90;;;17.30;51.90;;;;;;4988749;28;20211;-61
2024/03/21 04:24:56;;;;;;;5.93;3.70;;;17.30;51.90;;;;;;4984161;28;20643;-58
2024/03/21 04:27:22;;;;;;;4.70;3.43;;;17.20;51.80;;;;;;4987535;28;20249;-57
2024/03/21 04:29:47;;;;;;;4.00;3.70;;;17.30;51.80;;;;;;4983542;28;20217;-60
2024/03/21 04:32:16;;;;;;;4.60;4.10;;;17.30;51.60;;;;;;4987606;28;20183;-60
2024/03/21 04:34:43;;;;;;;3.63;3.33;;;17.20;51.60;;;;;;4988238;28;20191;-63
2024/03/21 04:37:18;;;;;;;4.50;4.10;;;17.00;52.00;;;;;;4986524;28;20465;-61
2024/03/21 04:39:47;;;;;;;4.80;4.37;;;17.00;52.40;;;;;;4988405;28;20418;-61
2024/03/21 04:42:14;;;;;;;5.80;3.80;;;16.80;52.60;;;;;;4987023;28;20509;-61
2024/03/21 04:44:41;;;;;;;3.70;3.40;;;16.90;53.00;;;;;;4987719;28;20429;-62
2024/03/21 04:47:06;;;;;;;4.00;3.47;;;16.90;52.80;;;;;;4982038;28;20493;-63
2024/03/21 04:49:32;;;;;;;4.33;3.80;;;16.90;53.10;;;;;;4981453;28;20464;-62
2024/03/21 04:51:57;;;;;;;5.13;3.20;;;16.90;52.60;;;;;;4982409;28;20210;-62
2024/03/21 04:54:23;;;;;;;4.33;3.43;;;17.00;52.60;;;;;;4982856;28;20659;-63
2024/03/21 04:56:49;;;;;;;5.40;3.97;;;16.90;52.70;;;;;;4979562;28;20301;-63
2024/03/21 04:59:14;;;;;;;5.43;4.43;;;17.00;52.60;;;;;;4980868;28;20610;-62
2024/03/21 05:01:40;;;;;;;4.30;3.90;;;17.10;52.50;;;;;;4975530;28;20186;-62
2024/03/21 05:04:05;;;;;;;4.90;3.80;;;17.10;52.20;;;;;;4980143;28;20615;-64
2024/03/21 05:06:31;;;;;;;5.10;4.23;;;17.20;51.50;;;;;;4981517;28;20223;-63
2024/03/21 05:08:57;;;;;;;4.10;3.70;;;17.20;51.20;;;;;;4984436;28;20258;-62
2024/03/21 05:11:23;;;;;;;4.07;3.57;;;17.10;51.20;;;;;;4984802;28;20540;-62
2024/03/21 05:13:50;;;;;;;5.23;4.27;;;17.00;51.30;;;;;;4984053;28;20189;-63
2024/03/21 05:16:16;;;;;;;46.20;26.87;;;16.80;51.60;;;;;;4982135;28;20907;-62
2024/03/21 05:18:42;;;;;;;49.53;30.87;;;16.70;51.80;;;;;;4982369;28;20457;-62
2024/03/21 05:21:09;;;;;;;19.73;13.00;;;16.60;52.00;;;;;;4984534;28;20446;-62
2024/03/21 05:23:34;;;;;;;7.00;5.97;;;16.60;52.60;;;;;;4983963;28;20804;-61
2024/03/21 05:26:00;;;;;;;4.90;4.40;;;16.60;53.10;;;;;;4982702;28;20477;-60
2024/03/21 05:28:27;;;;;;;5.17;4.20;;;16.50;52.90;;;;;;4982943;28;20737;-61
2024/03/21 05:30:53;;;;;;;4.63;4.20;;;16.30;52.90;;;;;;4983080;28;20190;-61
2024/03/21 05:33:18;;;;;;;5.73;3.47;;;16.20;53.30;;;;;;4982936;28;20457;-61
2024/03/21 05:35:44;;;;;;;4.50;4.07;;;16.10;53.50;;;;;;4985979;28;20938;-62
2024/03/21 05:38:11;;;;;;;4.50;4.10;;;16.00;53.70;;;;;;4983294;28;20214;-59
2024/03/21 05:40:37;;;;;;;10.33;5.03;;;15.90;53.80;;;;;;4982805;28;20192;-60
2024/03/21 05:43:03;;;;;;;4.90;4.00;;;15.80;54.20;;;;;;4983221;28;20446;-62
2024/03/21 05:45:28;;;;;;;8.70;4.40;;;15.80;54.40;;;;;;4983142;28;21498;-61
2024/03/21 05:47:54;;;;;;;5.60;4.60;;;15.70;54.50;;;;;;4982658;28;20272;-61
2024/03/21 05:50:19;;;;;;;8.17;5.10;;;15.50;55.40;;;;;;4983071;28;20619;-61
2024/03/21 05:52:45;;;;;;;6.83;4.77;;;15.40;55.30;;;;;;4986738;28;20206;-60
2024/03/21 05:55:10;;;;;;;5.53;4.30;;;15.30;55.40;;;;;;4982932;28;20191;-61
2024/03/21 05:57:38;;;;;;;5.00;4.00;;;15.00;56.00;;;;;;4982727;28;20562;-62
2024/03/21 06:00:10;;;;;;;5.00;4.50;;;15.10;56.40;;;;;;4982061;28;20202;-62
2024/03/21 06:02:35;;;;;;;6.43;4.30;;;15.00;56.40;;;;;;4983926;28;20797;-61
2024/03/21 06:05:01;;;;;;;5.80;4.37;;;15.00;56.50;;;;;;4982795;28;20464;-59
2024/03/21 06:07:27;;;;;;;6.80;5.10;;;14.90;56.70;;;;;;4981976;28;20265;-61
2024/03/21 06:09:52;;;;;;;5.33;3.97;;;14.60;58.00;;;;;;4984575;28;20632;-62
2024/03/21 06:12:18;;;;;;;4.43;4.00;;;14.50;58.10;;;;;;4991012;28;20187;-62
2024/03/21 06:14:43;;;;;;;5.80;4.80;;;14.60;58.70;;;;;;4990577;28;20193;-62
2024/03/21 06:17:09;;;;;;;3.63;3.33;;;14.90;58.70;;;;;;4987673;28;20214;-61
2024/03/21 06:19:35;;;;;;;4.10;3.70;;;15.20;58.20;;;;;;4985924;28;20195;-60
2024/03/21 06:22:00;;;;;;;4.10;3.70;;;15.40;57.80;;;;;;4992184;28;20270;-59
2024/03/21 06:24:26;;;;;;;7.70;3.90;;;15.60;56.70;;;;;;4990880;28;20628;-62
2024/03/21 06:26:51;;;;;;;4.63;3.70;;;15.70;56.90;;;;;;4991048;28;20299;-61
2024/03/21 06:29:17;;;;;;;6.27;3.50;;;15.80;56.80;;;;;;4990956;28;20187;-59
2024/03/21 06:31:42;;;;;;;4.03;3.63;;;15.80;56.00;;;;;;4991360;28;20663;-59
2024/03/21 06:34:08;;;;;;;4.33;3.93;;;15.80;56.30;;;;;;4989178;28;20190;-61
2024/03/21 06:36:33;;;;;;;6.10;3.77;;;16.00;56.10;;;;;;4985391;28;20285;-60
2024/03/21 06:38:59;;;;;;;5.23;4.20;;;16.10;55.70;;;;;;4985747;28;20198;-61
2024/03/21 06:41:25;;;;;;;5.37;4.70;;;16.20;55.40;;;;;;4988567;28;20253;-60
2024/03/21 06:43:50;;;;;;;7.30;5.23;;;16.30;55.20;;;;;;4989721;28;20213;-62
2024/03/21 06:46:16;;;;;;;11.10;4.37;;;16.40;55.20;;;;;;4988243;28;20604;-61
2024/03/21 06:48:41;;;;;;;5.27;4.77;;;16.40;55.00;;;;;;4989128;28;20219;-62
2024/03/21 06:51:08;;;;;;;5.10;4.00;;;16.50;54.90;;;;;;4989696;28;20191;-60
2024/03/21 06:53:34;;;;;;;5.77;4.93;;;16.60;54.90;;;;;;4990268;28;20190;-61
2024/03/21 06:56:00;;;;;;;4.60;4.20;;;16.60;54.70;;;;;;4987903;28;20815;-61
2024/03/21 06:58:27;;;;;;;6.10;4.70;;;16.70;55.00;;;;;;4988412;28;20964;-60
2024/03/21 07:00:53;;;;;;;5.63;4.20;;;16.70;55.00;;;;;;4987186;28;20815;-62
2024/03/21 07:03:19;;;;;;;6.60;4.40;;;16.70;55.00;;;;;;4986602;28;20434;-61
2024/03/21 07:05:47;;;;;;;5.23;4.47;;;16.70;54.80;;;;;;4988393;28;20450;-61
2024/03/21 07:08:13;;;;;;;6.80;4.23;;;16.80;54.70;;;;;;4988463;28;20465;-61
2024/03/21 07:10:38;;;;;;;4.80;3.97;;;16.80;54.70;;;;;;4989810;28;20452;-62
2024/03/21 07:13:04;;;;;;;7.63;4.77;;;16.80;54.70;;;;;;4987832;28;20301;-62
2024/03/21 07:15:29;;;;;;;4.63;4.23;;;16.90;55.30;;;;;;4988316;28;20659;-61
2024/03/21 07:17:55;;;;;;;4.27;3.97;;;16.90;54.50;;;;;;4988211;28;20214;-61
2024/03/21 07:20:22;;;;;;;4.60;4.20;;;17.00;54.40;;;;;;4984070;28;20182;-61
2024/03/21 07:22:48;;;;;;;5.87;4.47;;;17.00;54.30;;;;;;4989760;28;20222;-63
2024/03/21 07:25:14;;;;;;;6.00;4.20;;;17.10;54.50;;;;;;4986906;28;21122;-58
2024/03/21 07:27:42;;;;;;;5.73;4.40;;;17.10;54.30;;;;;;4987526;28;20489;-60
2024/03/21 07:30:11;;;;;;;4.50;4.10;;;17.20;54.40;;;;;;4987632;28;20191;-60
2024/03/21 07:32:37;;;;;;;6.53;4.30;;;17.20;54.70;;;;;;4986337;28;20459;-62
2024/03/21 07:35:03;;;;;;;7.73;4.80;;;17.20;55.00;;;;;;4986099;28;20533;-64
2024/03/21 07:37:29;;;;;;;4.87;4.47;;;17.30;55.00;;;;;;4984438;28;20780;-63
2024/03/21 07:39:54;;;;;;;4.70;4.30;;;17.40;54.90;;;;;;4989266;28;20462;-61
2024/03/21 07:42:20;;;;;;;5.40;4.53;;;17.30;54.90;;;;;;4989734;28;20187;-61
2024/03/21 07:44:45;;;;;;;5.37;4.87;;;17.30;54.90;;;;;;4989001;28;20185;-59
2024/03/21 07:47:11;;;;;;;4.67;4.17;;;17.40;54.70;;;;;;4984425;28;20233;-61
2024/03/21 07:49:38;;;;;;;4.40;4.00;;;17.50;54.70;;;;;;4991391;28;20198;-62
2024/03/21 07:52:03;;;;;;;7.13;4.50;;;17.50;54.60;;;;;;4988610;28;20446;-60
2024/03/21 07:54:33;;;;;;;6.07;4.77;;;17.50;54.60;;;;;;4986422;28;20441;-63
2024/03/21 07:56:59;;;;;;;5.87;4.30;;;17.30;54.80;;;;;;4990127;28;20206;-60
2024/03/21 07:59:25;;;;;;;7.33;4.70;;;17.40;55.00;;;;;;4987967;28;20447;-62
2024/03/21 08:01:51;;;;;;;4.87;4.37;;;17.40;54.80;;;;;;4987863;28;20987;-60
2024/03/21 08:04:17;;;;;;;5.17;4.67;;;17.10;55.20;;;;;;4985034;28;20558;-60
2024/03/21 08:06:42;;;;;;;5.33;4.47;;;17.20;55.10;;;;;;4980730;28;20481;-59
2024/03/21 08:09:09;;;;;;;5.50;5.00;;;17.30;54.90;;;;;;4983450;28;20924;-61
2024/03/21 08:11:35;;;;;;;6.00;5.17;;;17.10;54.90;;;;;;4994064;28;20199;-59
2024/03/21 08:14:01;;;;;;;6.87;5.00;;;17.10;55.30;;;;;;4982322;28;20987;-62
2024/03/21 08:16:27;;;;;;;6.37;4.43;;;17.20;55.30;;;;;;4986604;28;20465;-63
2024/03/21 08:18:53;;;;;;;8.63;4.13;;;17.30;55.10;;;;;;4988448;28;20434;-62
2024/03/21 08:21:21;;;;;;;6.90;4.50;;;17.40;55.00;;;;;;4988559;28;20445;-62
2024/03/21 08:23:49;;;;;;;7.20;4.80;;;17.40;54.80;;;;;;4983753;28;20194;-61
2024/03/21 08:26:17;;;;;;;6.17;5.57;;;17.70;54.60;;;;;;4984190;28;20473;-61
2024/03/21 08:28:42;;;;;;;8.83;4.93;;;17.90;54.30;;;;;;4980545;28;20516;-60
2024/03/21 08:31:08;;;;;;;9.33;4.73;;;18.00;54.20;;;;;;4989167;28;20421;-59
2024/03/21 08:33:34;;;;;;;7.90;5.87;;;18.10;54.20;;;;;;4988141;28;20763;-59
2024/03/21 08:35:59;;;;;;;6.00;5.10;;;18.20;54.30;;;;;;4986739;28;20182;-60
2024/03/21 08:38:25;;;;;;;8.70;4.53;;;18.30;54.10;;;;;;4983090;28;20241;-60
2024/03/21 08:40:51;;;;;;;4.20;3.80;;;18.50;54.20;;;;;;4988319;28;20285;-56
2024/03/21 08:43:16;;;;;;;4.27;3.87;;;18.60;54.20;;;;;;4993134;28;20194;-57
2024/03/21 08:45:46;;;;;;;7.67;3.57;;;18.90;54.20;;;;;;4992590;28;20211;-56
2024/03/21 08:48:13;;;;;;;3.90;3.50;;;19.30;53.60;;;;;;4991683;28;20215;-58
2024/03/21 08:50:39;;;;;;;4.37;3.30;;;19.50;53.10;;;;;;4991024;28;20498;-57
2024/03/21 08:53:05;;;;;;;5.53;3.60;;;19.70;52.70;;;;;;4990847;28;20444;-59
2024/03/21 08:55:35;;;;;;;4.90;3.13;;;19.90;52.30;;;;;;4990015;28;20944;-59
2024/03/21 08:58:04;;;;;;;4.93;2.97;;;20.00;52.10;;;;;;4992624;28;20974;-63
2024/03/21 09:00:33;;;;;;;5.40;3.87;;;20.10;51.90;;;;;;4992059;28;20448;-62
2024/03/21 09:02:59;;;;;;;6.23;3.17;;;20.20;51.70;;;;;;4996973;28;20469;-61
2024/03/21 09:05:25;;;;;;;4.07;3.60;;;20.30;51.90;;;;;;4987947;28;20442;-58
2024/03/21 09:07:50;;;;;;;6.13;3.30;;;20.40;51.90;;;;;;4990046;28;20495;-56
2024/03/21 09:10:16;;;;;;;5.07;3.47;;;20.40;52.00;;;;;;4994892;28;20670;-60
2024/03/21 09:12:42;;;;;;;7.63;3.20;;;20.50;51.90;;;;;;4988886;28;20194;-62
2024/03/21 09:15:13;;;;;;;3.10;2.80;;;20.70;51.40;;;;;;4987497;28;20270;-61
2024/03/21 09:17:39;;;;;;;7.10;3.37;;;21.00;50.90;;;;;;4989932;28;20453;-61
2024/03/21 09:20:07;;;;;;;7.57;4.83;;;21.20;50.40;;;;;;4989173;28;20434;-58
2024/03/21 09:22:36;;;;;;;5.40;4.20;;;21.40;49.50;;;;;;4991368;28;20190;-58
2024/03/21 09:25:02;;;;;;;10.50;4.67;;;21.50;49.30;;;;;;4991042;28;20442;-62
2024/03/21 09:27:28;;;;;;;5.37;3.90;;;21.50;49.10;;;;;;4990348;28;20492;-59
2024/03/21 09:29:53;;;;;;;7.10;4.37;;;21.60;49.40;;;;;;4982680;28;20503;-61
2024/03/21 09:32:21;;;;;;;5.10;4.13;;;21.60;48.90;;;;;;4984789;28;20199;-59
2024/03/21 09:34:49;;;;;;;5.10;3.70;;;21.60;49.00;;;;;;4987089;28;20626;-60
2024/03/21 09:37:16;;;;;;;6.20;4.53;;;21.50;49.00;;;;;;4987117;28;20497;-62
2024/03/21 09:39:41;;;;;;;6.50;4.53;;;21.60;49.30;;;;;;4988121;28;20954;-58
2024/03/21 09:42:12;;;;;;;5.43;4.83;;;21.60;48.90;;;;;;4989885;28;20445;-63
2024/03/21 09:44:39;;;;;;;7.10;4.00;;;21.60;49.20;;;;;;4985649;28;20247;-59
2024/03/21 09:47:08;;;;;;;5.27;4.60;;;21.60;50.00;;;;;;4990144;28;20485;-62
2024/03/21 09:49:34;;;;;;;6.67;5.23;;;21.40;50.20;;;;;;4988201;28;20457;-61
2024/03/21 09:52:00;;;;;;;6.40;4.70;;;21.40;50.40;;;;;;4990228;28;20442;-62
2024/03/21 09:54:25;;;;;;;6.50;5.20;;;21.30;50.80;;;;;;4986886;28;20237;-59
2024/03/21 09:56:53;;;;;;;6.23;5.53;;;21.30;50.80;;;;;;4989906;28;20218;-61
2024/03/21 09:59:20;;;;;;;7.13;5.50;;;21.20;51.40;;;;;;4988553;28;20187;-57
2024/03/21 10:01:46;;;;;;;6.40;5.40;;;21.00;51.50;;;;;;4988959;28;20885;-60
2024/03/21 10:04:12;;;;;;;6.77;5.60;;;20.90;51.90;;;;;;4985457;28;20446;-59
2024/03/21 10:06:47;;;;;;;8.10;6.50;;;21.00;52.50;;;;;;4986606;28;20493;-60
2024/03/21 10:09:14;;;;;;;6.67;5.50;;;20.90;52.30;;;;;;4986659;28;20244;-61
2024/03/21 10:11:41;;;;;;;6.20;5.57;;;20.70;52.60;;;;;;4988070;28;20453;-59
2024/03/21 10:14:13;;;;;;;10.17;5.23;;;20.50;52.60;;;;;;4989384;28;20480;-61
2024/03/21 10:16:42;;;;;;;7.83;6.07;;;20.10;52.40;;;;;;4987730;28;20497;-60
2024/03/21 10:19:12;;;;;;;7.27;6.30;;;20.20;53.10;;;;;;4987934;28;20426;-62
2024/03/21 10:21:37;;;;;;;9.33;7.10;;;20.10;53.30;;;;;;4990459;28;20432;-62
2024/03/21 10:24:04;;;;;;;10.43;7.43;;;20.00;53.50;;;;;;4989132;28;20434;-60
2024/03/21 10:26:31;;;;;;;9.57;7.40;;;20.00;53.70;;;;;;4988299;28;20316;-60
2024/03/21 10:28:57;;;;;;;8.23;7.43;;;20.00;54.10;;;;;;4988679;28;20511;-61
2024/03/21 10:31:23;;;;;;;8.47;7.60;;;20.00;53.90;;;;;;4985664;28;20541;-61
2024/03/21 10:33:54;;;;;;;8.33;6.70;;;20.00;54.30;;;;;;4988736;28;20418;-63
2024/03/21 10:36:20;;;;;;;7.80;7.00;;;20.20;54.10;;;;;;4988884;28;20833;-58
2024/03/21 10:38:46;;;;;;;9.53;6.90;;;20.30;53.90;;;;;;4990240;28;20425;-58
2024/03/21 10:41:22;;;;;;;10.00;6.87;;;20.30;53.80;;;;;;4988663;28;20434;-61
2024/03/21 10:44:18;;;;;;;8.90;7.30;;;20.60;53.50;;;;;;4985003;28;20968;-62
2024/03/21 10:46:46;;;;;;;9.60;7.33;;;20.60;53.40;;;;;;4979434;28;20605;-60
2024/03/21 10:49:14;;;;;;;11.97;8.63;;;20.90;53.00;;;;;;4987212;28;20497;-61
2024/03/21 10:51:45;;;;;;;10.57;7.90;;;21.00;52.90;;;;;;4989906;28;20430;-61
2024/03/21 10:54:16;;;;;;;9.30;8.43;;;21.30;52.40;;;;;;4989188;28;20488;-63
2024/03/21 10:56:42;;;;;;;10.93;8.93;;;21.60;51.30;;;;;;4989207;28;20556;-62
2024/03/21 10:59:15;;;;;;;8.77;7.87;;;21.80;50.90;;;;;;4988014;28;20442;-63
2024/03/21 11:01:42;;;;;;;12.70;8.07;;;21.80;50.70;;;;;;4986908;28;20482;-61
2024/03/21 11:04:11;;;;;;;9.97;7.40;;;21.80;50.60;;;;;;4989104;28;20429;-66
2024/03/21 11:06:42;;;;;;;11.63;8.67;;;21.80;50.10;;;;;;4988551;28;20484;-59
2024/03/21 11:09:09;;;;;;;10.10;7.97;;;21.90;50.50;;;;;;4989185;28;20428;-63
2024/03/21 11:11:35;;;;;;;9.73;8.73;;;22.00;49.40;;;;;;4990538;28;20469;-62
2024/03/21 11:14:09;;;;;;;12.07;7.20;;;22.00;49.00;;;;;;4988218;28;20491;-59
2024/03/21 11:16:39;;;;;;;8.40;7.60;;;22.10;48.90;;;;;;4981388;28;20473;-60
2024/03/21 11:19:05;;;;;;;7.80;7.10;;;22.10;49.00;;;;;;4987211;28;20426;-62
2024/03/21 11:21:31;;;;;;;8.30;6.57;;;21.80;49.20;;;;;;4989848;28;20537;-61
2024/03/21 11:23:57;;;;;;;6.67;5.97;;;21.80;49.30;;;;;;4989755;28;20190;-59
2024/03/21 11:26:22;;;;;;;8.63;6.80;;;21.80;49.50;;;;;;4989070;28;20485;-60
2024/03/21 11:28:51;;;;;;;7.40;6.60;;;22.00;49.50;;;;;;4989223;28;20183;-63
2024/03/21 11:31:24;;;;;;;7.83;6.53;;;22.20;49.10;;;;;;4989011;28;20186;-59
2024/03/21 11:33:51;;;;;;;9.03;8.10;;;22.60;48.50;;;;;;4987131;28;20449;-62
2024/03/21 11:36:18;;;;;;;8.40;7.40;;;22.50;47.90;;;;;;4987951;28;20879;-60
2024/03/21 11:38:44;;;;;;;8.27;7.47;;;22.30;48.40;;;;;;4989175;28;20493;-61
2024/03/21 11:41:26;;;;;;;10.30;9.30;;;22.40;48.50;;;;;;4986686;28;20434;-63
2024/03/21 11:43:53;;;;;;;12.10;10.87;;;22.40;48.60;;;;;;4986667;28;20422;-63
2024/03/21 11:46:20;;;;;;;12.57;10.63;;;22.20;49.20;;;;;;4987011;28;20490;-60
2024/03/21 11:49:01;;;;;;;14.20;10.70;;;22.40;49.10;;;;;;4988688;28;20488;-61
2024/03/21 11:51:29;;;;;;;12.60;11.30;;;22.40;47.60;;;;;;4975067;28;20445;-61
2024/03/21 11:53:55;;;;;;;13.27;12.10;;;22.50;47.80;;;;;;4989606;28;20441;-61
2024/03/21 11:56:21;;;;;;;12.60;11.40;;;22.60;47.70;;;;;;4988236;28;20461;-61
2024/03/21 11:58:46;;;;;;;11.30;10.10;;;22.60;47.90;;;;;;4987011;28;20195;-60
2024/03/21 12:01:12;;;;;;;11.10;10.00;;;22.50;48.10;;;;;;4988068;28;20561;-62
2024/03/21 12:03:38;;;;;;;10.87;9.80;;;22.50;48.10;;;;;;4985806;28;20270;-60
2024/03/21 12:06:03;;;;;;;11.93;10.67;;;22.70;48.00;;;;;;4988976;28;20187;-58
2024/03/21 12:08:29;;;;;;;10.93;10.00;;;22.80;48.60;;;;;;4988741;28;20680;-61
2024/03/21 12:10:55;;;;;;;10.13;9.20;;;23.10;48.10;;;;;;4989758;28;20218;-61
2024/03/21 12:13:21;;;;;;;11.73;9.40;;;23.40;47.50;;;;;;4989197;28;20594;-62
2024/03/21 12:15:46;;;;;;;11.60;10.50;;;23.50;46.60;;;;;;4991988;28;20182;-61
2024/03/21 12:18:12;;;;;;;11.47;10.47;;;23.40;46.10;;;;;;4990208;28;20563;-56
2024/03/21 12:20:37;;;;;;;11.63;10.63;;;23.40;45.80;;;;;;4991493;28;20193;-62
2024/03/21 12:23:03;;;;;;;12.97;11.77;;;23.50;46.10;;;;;;4988216;28;20221;-61
2024/03/21 12:25:29;;;;;;;14.27;12.87;;;23.30;46.10;;;;;;4991742;28;20191;-60
2024/03/21 12:27:55;;;;;;;13.63;12.37;;;23.00;46.30;;;;;;4992884;28;20230;-62
2024/03/21 12:30:21;;;;;;;14.77;11.67;;;22.90;46.60;;;;;;4987201;28;20201;-61
2024/03/21 12:32:47;;;;;;;12.57;11.43;;;22.90;46.60;;;;;;4993089;28;20442;-60
2024/03/21 12:35:12;;;;;;;12.53;11.27;;;22.90;46.90;;;;;;4990777;28;20233;-61
2024/03/21 12:37:40;;;;;;;13.83;12.33;;;22.90;46.80;;;;;;4991204;28;20209;-59
2024/03/21 12:40:06;;;;;;;14.60;12.10;;;23.10;47.20;;;;;;4991221;28;20606;-63
2024/03/21 12:42:32;;;;;;;14.50;12.33;;;23.00;47.00;;;;;;4989152;28;20477;-59
2024/03/21 12:44:57;;;;;;;13.90;12.40;;;23.10;46.30;;;;;;4992276;28;20828;-61